createdAt,value
2022-12-15T00:01:40.388Z,99944.28
2022-12-15T00:04:25.142Z,99934.16
2022-12-15T00:07:09.825Z,99936.31
2022-12-15T00:09:54.780Z,99940.06
2022-12-15T00:12:39.831Z,99934.03
2022-12-15T00:15:24.996Z,99941.41
2022-12-15T00:18:10.800Z,99951.22
2022-12-15T00:20:56.378Z,99957.03
2022-12-15T00:23:41.252Z,99962.59
2022-12-15T00:26:26.090Z,99959.97
2022-12-15T00:29:11.364Z,99967.22
2022-12-15T00:31:56.163Z,99958.91
2022-12-15T00:34:41.135Z,99969.09
2022-12-15T00:37:25.969Z,99967.25
2022-12-15T00:39:59.419Z,99973.22
2022-12-15T00:42:26.562Z,99963.59
2022-12-15T00:44:53.247Z,99972.28
2022-12-15T00:47:19.979Z,99969.06
2022-12-15T00:50:05.126Z,99960.84
2022-12-15T00:52:49.804Z,99960.59
2022-12-15T00:55:34.783Z,99974.41
2022-12-15T00:58:19.554Z,99971.06
2022-12-15T01:01:04.378Z,99966.56
2022-12-15T01:03:49.267Z,99960.63
2022-12-15T01:06:35.724Z,99962.53
2022-12-15T01:09:21.775Z,99954.19
2022-12-15T01:12:06.752Z,99948.00
2022-12-15T01:14:51.813Z,99948.69
2022-12-15T01:17:36.802Z,99943.94
2022-12-15T01:20:19.221Z,99945.28
2022-12-15T01:22:47.030Z,99960.84
2022-12-15T01:25:14.335Z,99949.50
2022-12-15T01:27:41.028Z,99948.72
2022-12-15T01:30:08.495Z,99946.81
2022-12-15T01:32:35.047Z,99941.72
2022-12-15T01:35:01.626Z,99946.09
2022-12-15T01:37:28.305Z,99945.03
2022-12-15T01:40:13.469Z,99938.00
2022-12-15T01:42:40.060Z,99933.25
2022-12-15T01:45:24.969Z,99935.88
2022-12-15T01:47:51.945Z,99935.03
2022-12-15T01:50:18.596Z,99933.47
2022-12-15T01:52:45.420Z,99936.34
2022-12-15T01:55:16.640Z,99945.13
2022-12-15T01:57:43.791Z,99948.00
2022-12-15T02:00:11.047Z,99957.28
2022-12-15T02:02:40.336Z,99966.31
2022-12-15T02:05:07.998Z,99980.38
2022-12-15T02:07:34.799Z,99981.19
2022-12-15T02:10:02.896Z,99963.31
2022-12-15T02:12:42.998Z,99966.75
2022-12-15T02:15:09.609Z,99963.78
2022-12-15T02:17:36.158Z,99971.41
2022-12-15T02:20:26.146Z,99962.53
2022-12-15T02:23:06.623Z,99974.19
2022-12-15T02:25:38.267Z,99962.50
2022-12-15T02:28:06.867Z,99955.84
2022-12-15T02:30:41.366Z,99947.53
2022-12-15T02:33:08.151Z,99956.34
2022-12-15T02:35:55.994Z,99959.66
2022-12-15T02:38:33.634Z,99954.31
2022-12-15T02:41:01.139Z,99963.72
2022-12-15T02:43:29.863Z,99975.72
2022-12-15T02:46:09.100Z,99974.03
2022-12-15T02:48:44.731Z,99959.84
2022-12-15T02:51:14.075Z,99963.88
2022-12-15T02:54:01.364Z,99971.94
2022-12-15T02:56:47.988Z,99970.19
2022-12-15T02:59:46.568Z,99976.13
2022-12-15T03:02:13.616Z,99979.41
2022-12-15T03:04:42.677Z,99981.78
2022-12-15T03:07:10.153Z,99989.66
2022-12-15T03:09:36.624Z,99987.25
2022-12-15T03:12:03.293Z,99986.84
2022-12-15T03:14:29.911Z,99990.13
2022-12-15T03:16:56.585Z,99984.81
2022-12-15T03:19:23.269Z,99993.81
2022-12-15T03:21:49.661Z,99982.47
2022-12-15T03:24:15.967Z,99987.94
2022-12-15T03:26:43.624Z,99996.06
2022-12-15T03:29:10.039Z,99994.72
2022-12-15T03:31:36.598Z,99988.41
2022-12-15T03:34:03.098Z,99985.47
2022-12-15T03:36:29.606Z,99976.78
2022-12-15T03:38:56.096Z,99990.75
2022-12-15T03:41:22.563Z,99985.56
2022-12-15T03:43:49.834Z,99996.50
2022-12-15T03:46:16.574Z,99981.97
2022-12-15T03:48:43.201Z,99987.25
2022-12-15T03:51:09.555Z,99998.34
2022-12-15T03:53:36.058Z,99988.31
2022-12-15T03:56:02.577Z,99994.31
2022-12-15T03:58:29.107Z,99995.38
2022-12-15T04:00:56.163Z,99989.94
2022-12-15T04:03:22.762Z,99997.31
2022-12-15T04:05:49.510Z,99997.78
2022-12-15T04:08:16.094Z,100009.94
2022-12-15T04:10:43.656Z,99998.69
2022-12-15T04:13:11.242Z,99994.97
2022-12-15T04:15:38.551Z,99993.38
2022-12-15T04:18:06.395Z,99982.25
2022-12-15T04:20:33.358Z,99984.75
2022-12-15T04:23:00.299Z,99993.63
2022-12-15T04:25:46.042Z,99994.97
2022-12-15T04:28:31.147Z,99994.78
2022-12-15T04:31:17.749Z,99994.53
2022-12-15T04:34:05.271Z,99998.84
2022-12-15T04:36:51.437Z,100002.44
2022-12-15T04:39:36.447Z,100001.13
2022-12-15T04:42:21.723Z,99997.78
2022-12-15T04:45:08.258Z,100014.47
2022-12-15T04:47:53.195Z,100024.97
2022-12-15T04:50:38.081Z,100021.69
2022-12-15T04:53:30.380Z,100017.69
2022-12-15T04:56:18.712Z,100021.59
2022-12-15T04:59:04.420Z,100021.28
2022-12-15T05:01:49.378Z,100018.28
2022-12-15T05:04:34.657Z,100024.94
2022-12-15T05:07:19.378Z,100025.16
2022-12-15T05:10:06.225Z,100028.16
2022-12-15T05:12:53.159Z,100006.16
2022-12-15T05:15:38.262Z,100014.22
2022-12-15T05:18:23.649Z,100012.41
2022-12-15T05:21:08.698Z,100017.00
2022-12-15T05:23:53.540Z,100025.28
2022-12-15T05:26:38.490Z,100036.91
2022-12-15T05:29:23.305Z,100040.78
2022-12-15T05:31:52.495Z,100042.59
2022-12-15T05:34:19.837Z,100044.97
2022-12-15T05:36:46.222Z,100047.94
2022-12-15T05:39:12.511Z,100047.38
2022-12-15T05:41:39.107Z,100046.56
2022-12-15T05:44:05.807Z,100039.84
2022-12-15T05:46:32.304Z,100041.59
2022-12-15T05:48:58.738Z,100043.72
2022-12-15T05:51:25.232Z,100042.34
2022-12-15T05:53:51.597Z,100049.78
2022-12-15T05:56:17.971Z,100062.44
2022-12-15T05:58:45.676Z,100057.69
2022-12-15T06:01:14.125Z,100066.88
2022-12-15T06:03:41.282Z,100068.22
2022-12-15T06:06:08.589Z,100069.50
2022-12-15T06:08:36.563Z,100068.63
2022-12-15T06:11:03.253Z,100072.19
2022-12-15T06:13:34.853Z,100084.94
2022-12-15T06:16:02.764Z,100085.19
2022-12-15T06:18:30.495Z,100070.88
2022-12-15T06:21:05.133Z,100076.75
2022-12-15T06:23:33.334Z,100082.59
2022-12-15T06:26:01.170Z,100079.09
2022-12-15T06:28:27.566Z,100082.78
2022-12-15T06:30:55.323Z,100081.34
2022-12-15T06:33:22.627Z,100082.47
2022-12-15T06:35:49.609Z,100090.22
2022-12-15T06:38:16.000Z,100095.06
2022-12-15T06:40:42.396Z,100102.50
2022-12-15T06:43:08.829Z,100109.34
2022-12-15T06:45:35.973Z,100108.81
2022-12-15T06:48:02.275Z,100112.66
2022-12-15T06:50:29.138Z,100114.53
2022-12-15T06:52:55.485Z,100111.91
2022-12-15T06:55:21.825Z,100119.09
2022-12-15T06:57:48.776Z,100120.44
2022-12-15T07:00:15.799Z,100121.47
2022-12-15T07:02:42.569Z,100128.63
2022-12-15T07:05:09.352Z,100126.88
2022-12-15T07:07:35.798Z,100124.53
2022-12-15T07:10:02.164Z,100130.63
2022-12-15T07:12:28.453Z,100140.16
2022-12-15T07:14:54.735Z,100140.78
2022-12-15T07:17:21.016Z,100153.28
2022-12-15T07:19:47.425Z,100152.31
2022-12-15T07:22:13.726Z,100161.34
2022-12-15T07:24:40.012Z,100163.28
2022-12-15T07:27:06.362Z,100161.13
2022-12-15T07:29:32.651Z,100178.50
2022-12-15T07:32:01.145Z,100173.88
2022-12-15T07:34:27.550Z,100178.78
2022-12-15T07:36:55.047Z,100188.72
2022-12-15T07:39:21.546Z,100189.09
2022-12-15T07:41:48.089Z,100199.13
2022-12-15T07:44:14.863Z,100189.72
2022-12-15T07:46:41.333Z,100188.31
2022-12-15T07:49:07.745Z,100187.66
2022-12-15T07:51:34.206Z,100189.66
2022-12-15T07:54:00.549Z,100201.47
2022-12-15T07:56:26.888Z,100197.81
2022-12-15T07:58:53.235Z,100188.66
2022-12-15T08:01:19.813Z,100193.78
2022-12-15T08:03:46.684Z,100204.75
2022-12-15T08:06:14.144Z,100199.03
2022-12-15T08:08:40.924Z,100202.84
2022-12-15T08:11:11.761Z,100217.50
2022-12-15T08:14:01.811Z,100206.91
2022-12-15T08:16:25.378Z,100213.84
2022-12-15T08:18:51.785Z,100216.94
2022-12-15T08:21:18.506Z,100222.75
2022-12-15T08:23:45.192Z,100214.78
2022-12-15T08:26:12.803Z,100225.91
2022-12-15T08:28:39.969Z,100226.19
2022-12-15T08:31:10.696Z,100238.59
2022-12-15T08:33:37.582Z,100226.69
2022-12-15T08:36:06.236Z,100231.47
2022-12-15T08:38:32.755Z,100227.88
2022-12-15T08:41:06.119Z,100235.75
2022-12-15T08:43:33.049Z,100232.09
2022-12-15T08:46:00.483Z,100225.75
2022-12-15T08:48:26.982Z,100230.88
2022-12-15T08:50:55.069Z,100236.69
2022-12-15T08:53:31.226Z,100240.97
2022-12-15T08:56:02.257Z,100248.16
2022-12-15T08:58:29.699Z,100244.84
2022-12-15T09:01:00.137Z,100253.28
2022-12-15T09:03:27.451Z,100262.84
2022-12-15T09:05:53.817Z,100263.69
2022-12-15T09:08:20.156Z,100264.84
2022-12-15T09:10:46.484Z,100265.09
2022-12-15T09:13:18.863Z,100261.28
2022-12-15T09:16:08.820Z,100260.06
2022-12-15T09:18:32.573Z,100254.50
2022-12-15T09:21:03.209Z,100262.50
2022-12-15T09:23:30.123Z,100259.94
2022-12-15T09:26:00.499Z,100257.41
2022-12-15T09:28:26.861Z,100262.34
2022-12-15T09:30:53.337Z,100273.16
2022-12-15T09:33:19.719Z,100271.06
2022-12-15T09:35:52.526Z,100283.09
2022-12-15T09:38:18.950Z,100272.53
2022-12-15T09:40:45.359Z,100269.97
2022-12-15T09:43:34.376Z,100265.72
2022-12-15T09:46:04.222Z,100267.78
2022-12-15T09:48:36.423Z,100257.66
2022-12-15T09:51:04.394Z,100270.00
2022-12-15T09:53:54.135Z,100269.72
2022-12-15T09:56:23.584Z,100268.88
2022-12-15T09:59:00.508Z,100270.97
2022-12-15T10:01:33.589Z,100277.22
2022-12-15T10:04:07.292Z,100270.44
2022-12-15T10:06:37.597Z,100272.38
2022-12-15T10:09:08.867Z,100269.84
2022-12-15T10:11:43.854Z,100281.94
2022-12-15T10:14:19.365Z,100277.81
2022-12-15T10:17:06.367Z,100274.72
2022-12-15T10:19:45.460Z,100274.72
2022-12-15T10:22:19.897Z,100270.53
2022-12-15T10:27:51.275Z,100263.28
2022-12-15T10:30:17.738Z,100271.25
2022-12-15T10:32:51.652Z,100263.44
2022-12-15T10:35:29.280Z,100247.66
2022-12-15T10:38:00.211Z,100246.97
2022-12-15T10:40:41.835Z,100249.34
2022-12-15T10:43:15.644Z,100250.25
2022-12-15T10:45:42.575Z,100251.81
2022-12-15T10:48:18.946Z,100254.13
2022-12-15T10:50:45.337Z,100246.38
2022-12-15T10:53:35.453Z,100241.91
2022-12-15T10:56:02.002Z,100246.53
2022-12-15T10:58:28.461Z,100248.72
2022-12-15T11:01:09.111Z,100243.00
2022-12-15T11:03:37.244Z,100245.88
2022-12-15T11:06:09.986Z,100252.19
2022-12-15T11:08:36.731Z,100253.75
2022-12-15T11:11:25.997Z,100255.31
2022-12-15T11:14:07.207Z,100266.00
2022-12-15T11:16:33.560Z,100268.13
2022-12-15T11:19:08.081Z,100269.56
2022-12-15T11:21:42.002Z,100261.50
2022-12-15T11:24:08.634Z,100257.97
2022-12-15T11:26:49.230Z,100258.72
2022-12-15T11:29:23.828Z,100257.53
2022-12-15T11:31:51.163Z,100250.97
2022-12-15T11:34:22.609Z,100258.94
2022-12-15T11:36:49.252Z,100257.06
2022-12-15T11:39:35.393Z,100262.16
2022-12-15T11:42:01.850Z,100265.75
2022-12-15T11:44:32.557Z,100261.75
2022-12-15T11:47:19.154Z,100269.50
2022-12-15T11:50:04.471Z,100277.09
2022-12-15T11:52:42.968Z,100276.56
2022-12-15T11:55:12.369Z,100279.88
2022-12-15T11:57:45.180Z,100276.66
2022-12-15T12:00:19.420Z,100278.47
2022-12-15T12:02:55.563Z,100280.06
2022-12-15T12:05:45.260Z,100279.72
2022-12-15T12:08:36.084Z,100286.78
2022-12-15T12:11:05.894Z,100288.00
2022-12-15T12:13:52.500Z,100284.25
2022-12-15T12:16:28.209Z,100286.34
2022-12-15T12:19:02.334Z,100288.50
2022-12-15T12:21:33.213Z,100289.41
2022-12-15T12:24:08.983Z,100301.06
2022-12-15T12:26:38.992Z,100298.59
2022-12-15T12:29:11.845Z,100295.25
2022-12-15T12:32:10.650Z,100292.63
2022-12-15T12:35:31.089Z,100287.28
2022-12-15T12:37:51.287Z,100290.47
2022-12-15T12:40:35.828Z,100291.06
2022-12-15T12:43:02.439Z,100292.16
2022-12-15T12:45:31.011Z,100288.78
2022-12-15T12:48:01.343Z,100283.53
2022-12-15T12:50:29.476Z,100289.34
2022-12-15T12:52:57.427Z,100289.69
2022-12-15T12:55:24.264Z,100289.81
2022-12-15T12:57:50.734Z,100295.03
2022-12-15T13:00:21.278Z,100290.81
2022-12-15T13:03:07.896Z,100287.59
2022-12-15T13:05:36.144Z,100291.41
2022-12-15T13:08:05.621Z,100291.06
2022-12-15T13:10:33.456Z,100296.41
2022-12-15T13:13:16.864Z,100284.34
2022-12-15T13:15:45.686Z,100284.56
2022-12-15T13:18:17.055Z,100293.13
2022-12-15T13:20:44.554Z,100285.72
2022-12-15T13:23:20.108Z,100290.59
2022-12-15T13:25:56.026Z,100293.50
2022-12-15T13:28:22.566Z,100290.19
2022-12-15T13:31:07.708Z,100303.56
2022-12-15T13:33:34.547Z,100305.28
2022-12-15T13:36:01.274Z,100301.69
2022-12-15T13:38:47.634Z,100313.88
2022-12-15T13:41:23.850Z,100311.22
2022-12-15T13:43:51.194Z,100306.34
2022-12-15T13:46:24.683Z,100302.41
2022-12-15T13:49:04.675Z,100298.06
2022-12-15T13:51:31.146Z,100305.03
2022-12-15T13:53:57.467Z,100301.31
2022-12-15T13:56:37.760Z,100304.63
2022-12-15T13:59:06.834Z,100300.97
2022-12-15T14:01:33.840Z,100311.22
2022-12-15T14:04:05.226Z,100307.94
2022-12-15T14:06:35.748Z,100307.16
2022-12-15T14:09:02.095Z,100311.94
2022-12-15T14:11:51.981Z,100317.41
2022-12-15T14:14:19.937Z,100313.88
2022-12-15T14:16:46.931Z,100315.72
2022-12-15T14:19:17.085Z,100314.41
2022-12-15T14:21:54.210Z,100311.81
2022-12-15T14:24:39.911Z,100315.88
2022-12-15T14:27:06.917Z,100322.38
2022-12-15T14:29:33.257Z,100327.66
2022-12-15T14:32:00.401Z,100326.00
2022-12-15T14:34:26.799Z,100322.84
2022-12-15T14:36:54.998Z,100323.75
2022-12-15T14:39:34.590Z,100328.50
2022-12-15T14:42:01.920Z,100319.53
2022-12-15T14:44:38.175Z,100328.84
2022-12-15T14:47:06.860Z,100322.34
2022-12-15T14:49:42.752Z,100329.34
2022-12-15T14:52:19.070Z,100322.94
2022-12-15T14:54:57.587Z,100333.16
2022-12-15T14:57:25.926Z,100328.56
2022-12-15T14:59:53.303Z,100326.63
2022-12-15T15:02:24.945Z,100328.50
2022-12-15T15:05:04.643Z,100333.59
2022-12-15T15:07:35.298Z,100324.78
2022-12-15T15:10:02.070Z,100324.47
2022-12-15T15:12:43.533Z,100329.25
2022-12-15T15:15:17.570Z,100324.13
2022-12-15T15:17:48.775Z,100321.13
2022-12-15T15:20:18.184Z,100335.06
2022-12-15T15:22:45.665Z,100333.25
2022-12-15T15:25:27.923Z,100335.03
2022-12-15T15:28:03.403Z,100340.56
2022-12-15T15:30:30.988Z,100345.75
2022-12-15T15:32:58.371Z,100348.94
2022-12-15T15:35:30.180Z,100355.63
2022-12-15T15:38:02.335Z,100348.03
2022-12-15T15:40:28.745Z,100350.63
2022-12-15T15:42:55.571Z,100349.38
2022-12-15T15:45:22.021Z,100356.03
2022-12-15T15:47:50.098Z,100353.16
2022-12-15T15:50:22.115Z,100362.09
2022-12-15T15:52:48.541Z,100353.56
2022-12-15T15:55:16.122Z,100357.59
2022-12-15T15:57:42.513Z,100353.16
2022-12-15T16:00:22.941Z,100354.88
2022-12-15T16:02:49.391Z,100359.78
2022-12-15T16:05:16.329Z,100352.41
2022-12-15T16:07:43.897Z,100355.13
2022-12-15T16:10:14.576Z,100345.50
2022-12-15T16:12:46.680Z,100343.72
2022-12-15T16:15:17.923Z,100344.75
2022-12-15T16:17:44.616Z,100347.97
2022-12-15T16:20:12.707Z,100341.41
2022-12-15T16:22:40.066Z,100337.03
2022-12-15T16:25:10.073Z,100338.53
2022-12-15T16:27:36.631Z,100336.44
2022-12-15T16:30:06.448Z,100334.31
2022-12-15T16:32:33.055Z,100330.69
2022-12-15T16:34:59.390Z,100344.88
2022-12-15T16:37:27.455Z,100352.97
2022-12-15T16:39:54.283Z,100350.00
2022-12-15T16:42:20.974Z,100353.72
2022-12-15T16:44:47.684Z,100347.84
2022-12-15T16:47:14.151Z,100352.16
2022-12-15T16:49:40.711Z,100355.31
2022-12-15T16:52:12.020Z,100362.97
2022-12-15T16:54:47.863Z,100362.44
2022-12-15T16:57:14.798Z,100369.72
2022-12-15T16:59:41.969Z,100377.53
2022-12-15T17:02:29.204Z,100382.38
2022-12-15T17:04:56.072Z,100383.41
2022-12-15T17:07:24.101Z,100387.00
2022-12-15T17:09:50.950Z,100385.38
2022-12-15T17:12:18.675Z,100386.88
2022-12-15T17:14:45.563Z,100394.81
2022-12-15T17:17:16.696Z,100394.97
2022-12-15T17:19:58.034Z,100396.63
2022-12-15T17:22:30.500Z,100386.69
2022-12-15T17:24:57.070Z,100398.97
2022-12-15T17:27:27.745Z,100403.22
2022-12-15T17:29:55.412Z,100409.16
2022-12-15T17:32:22.012Z,100409.31
2022-12-15T17:34:48.537Z,100412.09
2022-12-15T17:37:15.101Z,100415.19
2022-12-15T17:39:44.702Z,100419.19
2022-12-15T17:42:16.570Z,100406.25
2022-12-15T17:44:46.534Z,100409.44
2022-12-15T17:47:13.681Z,100414.84
2022-12-15T17:49:40.234Z,100414.13
2022-12-15T17:52:11.581Z,100420.56
2022-12-15T17:54:38.306Z,100421.97
2022-12-15T17:57:04.707Z,100428.94
2022-12-15T17:59:32.198Z,100424.88
2022-12-15T18:01:58.714Z,100433.09
2022-12-15T18:04:25.933Z,100421.56
2022-12-15T18:06:58.040Z,100432.25
2022-12-15T18:09:27.771Z,100436.34
2022-12-15T18:11:54.155Z,100434.00
2022-12-15T18:14:23.061Z,100439.72
2022-12-15T18:16:49.822Z,100434.19
2022-12-15T18:19:17.096Z,100440.69
2022-12-15T18:21:44.288Z,100439.78
2022-12-15T18:24:12.546Z,100443.06
2022-12-15T18:26:40.634Z,100443.56
2022-12-15T18:29:14.809Z,100449.97
2022-12-15T18:31:42.985Z,100452.25
2022-12-15T18:34:14.069Z,100454.88
2022-12-15T18:36:40.669Z,100447.44
2022-12-15T18:39:18.185Z,100458.94
2022-12-15T18:41:45.146Z,100465.84
2022-12-15T18:44:31.469Z,100456.19
2022-12-15T18:46:57.892Z,100465.72
2022-12-15T18:49:24.540Z,100466.53
2022-12-15T18:51:51.748Z,100465.19
2022-12-15T18:54:20.264Z,100479.16
2022-12-15T18:56:47.251Z,100476.50
2022-12-15T18:59:15.700Z,100479.97
2022-12-15T19:01:43.137Z,100478.22
2022-12-15T19:04:09.798Z,100481.91
2022-12-15T19:06:36.230Z,100490.88
2022-12-15T19:09:03.625Z,100493.00
2022-12-15T19:11:33.924Z,100498.75
2022-12-15T19:14:01.716Z,100501.25
2022-12-15T19:16:48.679Z,100502.09
2022-12-15T19:19:33.632Z,100502.09
2022-12-15T19:22:00.249Z,100519.03
2022-12-15T19:24:55.407Z,100517.56
2022-12-15T19:27:26.805Z,100527.25
2022-12-15T19:29:54.724Z,100530.00
2022-12-15T19:32:23.071Z,100534.47
2022-12-15T19:35:04.436Z,100537.22
2022-12-15T19:37:31.653Z,100543.34
2022-12-15T19:39:59.500Z,100546.28
2022-12-15T19:42:30.409Z,100552.91
2022-12-15T19:44:57.445Z,100550.28
2022-12-15T19:47:24.471Z,100553.97
2022-12-15T19:49:52.139Z,100549.19
2022-12-15T19:52:23.310Z,100553.16
2022-12-15T19:54:50.316Z,100546.91
2022-12-15T19:57:19.081Z,100551.50
2022-12-15T19:59:47.127Z,100553.16
2022-12-15T20:02:17.947Z,100548.34
2022-12-15T20:04:45.761Z,100558.34
2022-12-15T20:07:27.342Z,100550.81
2022-12-15T20:09:56.073Z,100555.13
2022-12-15T20:12:24.109Z,100562.28
2022-12-15T20:14:52.730Z,100566.94
2022-12-15T20:17:20.353Z,100553.94
2022-12-15T20:19:47.932Z,100560.50
2022-12-15T20:22:19.742Z,100562.44
2022-12-15T20:24:48.320Z,100562.66
2022-12-15T20:27:16.275Z,100578.53
2022-12-15T20:29:43.038Z,100578.66
2022-12-15T20:32:17.270Z,100579.19
2022-12-15T20:34:43.749Z,100582.75
2022-12-15T20:37:16.469Z,100580.22
2022-12-15T20:39:45.850Z,100582.81
2022-12-15T20:42:18.021Z,100581.09
2022-12-15T20:44:44.924Z,100589.13
2022-12-15T20:47:31.787Z,100584.41
2022-12-15T20:49:58.459Z,100586.75
2022-12-15T20:52:26.386Z,100591.00
2022-12-15T20:54:53.806Z,100598.06
2022-12-15T20:57:20.430Z,100597.06
2022-12-15T20:59:46.967Z,100596.19
2022-12-15T21:02:21.397Z,100594.81
2022-12-15T21:04:49.000Z,100594.09
2022-12-15T21:07:15.394Z,100600.06
2022-12-15T21:09:41.947Z,100604.84
2022-12-15T21:12:19.749Z,100602.50
2022-12-15T21:14:46.404Z,100607.19
2022-12-15T21:17:21.401Z,100611.22
2022-12-15T21:19:51.340Z,100618.13
2022-12-15T21:22:28.315Z,100616.88
2022-12-15T21:25:00.898Z,100617.19
2022-12-15T21:27:27.804Z,100613.63
2022-12-15T21:29:57.528Z,100610.19
2022-12-15T21:32:27.918Z,100622.94
2022-12-15T21:34:54.814Z,100613.56
2022-12-15T21:37:26.845Z,100618.06
2022-12-15T21:39:53.538Z,100618.06
2022-12-15T21:42:21.464Z,100618.97
2022-12-15T21:44:48.336Z,100627.31
2022-12-15T21:47:52.141Z,100622.44
2022-12-15T21:50:19.325Z,100623.09
2022-12-15T21:52:46.586Z,100622.41
2022-12-15T21:55:16.473Z,100623.53
2022-12-15T21:57:42.864Z,100617.56
2022-12-15T22:00:10.603Z,100622.13
2022-12-15T22:02:37.343Z,100616.16
2022-12-15T22:05:04.943Z,100613.34
2022-12-15T22:07:31.426Z,100621.00
2022-12-15T22:09:58.449Z,100624.22
2022-12-15T22:12:25.030Z,100621.34
2022-12-15T22:14:52.278Z,100625.97
2022-12-15T22:17:20.391Z,100624.38
2022-12-15T22:19:47.594Z,100620.41
2022-12-15T22:22:14.478Z,100617.50
2022-12-15T22:24:40.919Z,100610.84
2022-12-15T22:27:17.836Z,100624.13
2022-12-15T22:29:44.414Z,100625.53
2022-12-15T22:32:12.915Z,100620.47
2022-12-15T22:34:40.018Z,100622.91
2022-12-15T22:37:06.863Z,100625.41
2022-12-15T22:39:33.759Z,100626.09
2022-12-15T22:42:03.171Z,100631.25
2022-12-15T22:44:36.211Z,100631.00
2022-12-15T22:47:03.915Z,100635.66
2022-12-15T22:49:32.382Z,100625.97
2022-12-15T22:51:59.053Z,100625.72
2022-12-15T22:54:26.580Z,100623.81
2022-12-15T22:56:59.518Z,100633.44
2022-12-15T22:59:29.789Z,100635.72
2022-12-15T23:01:56.926Z,100637.44
2022-12-15T23:04:24.639Z,100643.59
2022-12-15T23:06:51.226Z,100645.56
2022-12-15T23:09:18.850Z,100651.22
2022-12-15T23:11:45.507Z,100654.91
2022-12-15T23:14:16.385Z,100654.50
2022-12-15T23:16:43.865Z,100656.41
2022-12-15T23:19:23.682Z,100655.25
2022-12-15T23:21:51.078Z,100654.84
2022-12-15T23:24:18.418Z,100667.00
2022-12-15T23:26:45.010Z,100666.41
2022-12-15T23:29:11.618Z,100670.19
2022-12-15T23:31:38.405Z,100674.13
2022-12-15T23:34:05.454Z,100664.97
2022-12-15T23:36:32.379Z,100677.94
2022-12-15T23:38:58.920Z,100668.91
2022-12-15T23:41:25.797Z,100679.56
2022-12-15T23:43:53.834Z,100688.75
2022-12-15T23:46:22.563Z,100676.00
2022-12-15T23:48:49.341Z,100677.41
2022-12-15T23:51:19.453Z,100689.47
2022-12-15T23:53:46.887Z,100687.41
2022-12-15T23:56:16.687Z,100684.53
2022-12-15T23:58:45.712Z,100683.78
